Time;durP1;ratioP1;P1;durP2;ratioP2;P2;SDS_P1;SDS_P2;PMS_P1;PMS_P2;Temp;Humidity;BMP_temperature;BMP_pressure;BME280_temperature;BME280_humidity;BME280_pressure;Samples;Min_cycle;Max_cycle;Signal;HPM_P1;HPM_P2
2023/07/22 00:00:15;;;;;;;6.25;2.75;;;;;;;14.55;66.58;98616.19;4954308;28;20049;-62
2023/07/22 00:02:40;;;;;;;3.05;2.63;;;;;;;14.51;66.48;98598.72;4956293;28;20041;-64
2023/07/22 00:05:06;;;;;;;4.20;2.53;;;;;;;14.48;66.66;98615.97;4971329;28;20054;-66
2023/07/22 00:07:31;;;;;;;3.63;2.83;;;;;;;14.48;66.75;98593.66;4954579;28;20058;-65
2023/07/22 00:09:56;;;;;;;3.88;2.20;;;;;;;14.47;66.58;98597.34;4955355;28;20222;-64
2023/07/22 00:12:25;;;;;;;2.58;2.38;;;;;;;14.43;66.78;98612.09;4956027;28;20050;-64
2023/07/22 00:14:50;;;;;;;4.38;2.40;;;;;;;14.41;66.72;98603.34;4956147;28;20936;-66
2023/07/22 00:17:15;;;;;;;4.72;2.60;;;;;;;14.37;67.06;98618.88;4954741;28;20417;-65
2023/07/22 00:19:41;;;;;;;6.22;2.50;;;;;;;14.36;67.35;98600.25;4955935;28;20054;-66
2023/07/22 00:22:06;;;;;;;8.68;3.20;;;;;;;14.34;67.15;98596.91;4953728;28;20034;-64
2023/07/22 00:24:31;;;;;;;4.55;2.50;;;;;;;14.28;67.84;98608.25;4953999;28;20046;-63
2023/07/22 00:26:57;;;;;;;5.70;2.90;;;;;;;14.28;67.71;98598.38;4953143;28;20505;-66
2023/07/22 00:29:23;;;;;;;4.18;2.70;;;;;;;14.27;67.83;98611.94;4970377;28;20046;-64
2023/07/22 00:31:49;;;;;;;3.22;2.25;;;;;;;14.25;67.92;98611.25;4955620;28;20053;-63
2023/07/22 00:34:17;;;;;;;3.42;2.42;;;;;;;14.24;68.79;98602.38;4954124;28;20057;-63
2023/07/22 00:36:44;;;;;;;6.45;2.97;;;;;;;14.23;68.16;98607.88;4954520;28;20038;-62
2023/07/22 00:39:09;;;;;;;2.47;2.28;;;;;;;14.22;68.11;98599.00;4969908;28;20058;-63
2023/07/22 00:41:34;;;;;;;3.08;2.55;;;;;;;14.21;67.92;98607.22;4970114;28;20104;-65
2023/07/22 00:44:00;;;;;;;3.35;2.38;;;;;;;14.19;68.83;98604.69;4957607;28;20413;-63
2023/07/22 00:46:25;;;;;;;5.13;2.35;;;;;;;14.15;68.61;98597.97;4974230;28;20505;-65
2023/07/22 00:48:50;;;;;;;3.88;2.40;;;;;;;14.14;68.67;98604.31;4957258;28;20061;-68
2023/07/22 00:51:20;;;;;;;3.35;2.50;;;;;;;14.11;68.93;98612.66;4973808;28;20050;-64
2023/07/22 00:53:46;;;;;;;2.17;1.98;;;;;;;14.10;68.85;98619.06;4936741;28;20050;-66
2023/07/22 00:56:11;;;;;;;5.38;2.60;;;;;;;14.06;69.57;98610.47;4940032;28;20074;-67
2023/07/22 00:58:37;;;;;;;5.10;2.25;;;;;;;14.07;69.76;98617.53;4947586;28;20055;-65
2023/07/22 01:01:02;;;;;;;7.68;2.53;;;;;;;14.06;69.42;98620.34;4943433;28;20401;-66
2023/07/22 01:03:28;;;;;;;2.55;1.65;;;;;;;14.03;68.88;98621.50;4958944;28;20046;-65
2023/07/22 01:05:54;;;;;;;6.32;2.42;;;;;;;14.04;69.37;98612.47;4959218;28;20042;-65
2023/07/22 01:08:20;;;;;;;2.55;2.05;;;;;;;14.03;69.36;98616.13;4959217;28;20398;-66
2023/07/22 01:10:45;;;;;;;2.20;2.00;;;;;;;13.98;69.60;98615.78;4958882;28;20038;-64
2023/07/22 01:13:11;;;;;;;7.15;3.13;;;;;;;13.99;69.59;98619.31;4954894;28;20047;-64
2023/07/22 01:15:38;;;;;;;4.85;2.65;;;;;;;13.99;69.96;98630.88;4934743;28;20502;-65
2023/07/22 01:18:03;;;;;;;3.63;2.15;;;;;;;13.98;69.87;98628.34;4944805;28;20054;-65
2023/07/22 01:20:29;;;;;;;2.80;2.53;;;;;;;13.95;70.22;98634.84;4973882;28;20061;-67
2023/07/22 01:22:54;;;;;;;6.20;2.25;;;;;;;13.94;70.32;98638.50;4958898;28;20045;-66
2023/07/22 01:25:23;;;;;;;2.75;2.45;;;;;;;13.97;69.93;98632.00;4954072;28;20061;-67
2023/07/22 01:27:51;;;;;;;4.57;2.42;;;;;;;13.95;70.24;98666.16;4954510;28;20061;-67
2023/07/22 01:30:19;;;;;;;3.40;2.70;;;;;;;13.93;70.63;98642.19;4938317;28;20042;-66
2023/07/22 01:32:47;;;;;;;5.22;2.42;;;;;;;13.95;70.69;98640.19;4966283;28;20394;-66
2023/07/22 01:35:12;;;;;;;3.78;2.50;;;;;;;13.93;70.41;98647.53;4958731;28;20038;-67
2023/07/22 01:37:37;;;;;;;4.35;2.72;;;;;;;13.95;70.47;98645.56;4958527;28;20433;-66
2023/07/22 01:40:11;;;;;;;2.90;1.98;;;;;;;13.96;70.89;98641.03;4973912;28;20042;-65
2023/07/22 01:42:40;;;;;;;3.78;2.65;;;;;;;13.97;71.00;98654.28;4958517;28;20061;-69
2023/07/22 01:45:10;;;;;;;4.72;2.00;;;;;;;13.96;70.84;98647.25;4957730;28;20045;-64
2023/07/22 01:47:35;;;;;;;3.45;2.30;;;;;;;13.95;70.42;98661.63;4924841;28;20050;-64
2023/07/22 01:50:02;;;;;;;4.07;2.08;;;;;;;13.98;71.02;98657.81;4944377;28;20497;-65
2023/07/22 01:52:29;;;;;;;7.30;2.65;;;;;;;13.96;70.27;98647.25;4962491;28;20042;-66
2023/07/22 01:54:54;;;;;;;5.40;2.30;;;;;;;13.97;70.87;98674.88;4968471;28;20042;-65
2023/07/22 01:57:20;;;;;;;3.67;2.60;;;;;;;13.96;70.76;98647.25;4939981;28;20062;-66
2023/07/22 01:59:46;;;;;;;3.17;2.45;;;;;;;14.00;70.40;98666.50;4960479;28;20061;-64
2023/07/22 02:02:11;;;;;;;4.03;2.45;;;;;;;14.01;70.68;98661.00;4954050;28;20057;-66
2023/07/22 02:04:37;;;;;;;4.13;2.47;;;;;;;14.04;70.74;98657.19;4938066;28;20051;-66
2023/07/22 02:07:02;;;;;;;4.28;2.22;;;;;;;14.08;70.38;98678.16;4942139;28;20061;-65
2023/07/22 02:09:28;;;;;;;6.22;2.67;;;;;;;14.14;70.43;98623.91;4957108;28;20046;-66
2023/07/22 02:11:53;;;;;;;6.43;3.05;;;;;;;14.17;70.72;98660.31;4942138;28;20042;-66
2023/07/22 02:14:21;;;;;;;3.00;2.33;;;;;;;14.22;70.43;98668.69;4954305;28;20062;-66
2023/07/22 02:16:47;;;;;;;3.08;2.30;;;;;;;14.27;70.60;98661.03;4959341;28;20095;-65
2023/07/22 02:19:12;;;;;;;7.15;3.10;;;;;;;14.33;70.47;98663.13;4956819;28;20057;-66
2023/07/22 02:21:40;;;;;;;2.63;2.25;;;;;;;14.40;70.24;98666.03;4966100;28;20038;-67
2023/07/22 02:24:05;;;;;;;4.70;2.10;;;;;;;14.44;69.53;98657.53;4941955;28;20047;-66
2023/07/22 02:26:30;;;;;;;2.83;2.22;;;;;;;14.50;69.59;98658.72;4941016;28;20050;-65
2023/07/22 02:28:55;;;;;;;3.28;2.58;;;;;;;14.55;69.45;98652.88;4953415;28;20515;-66
2023/07/22 02:31:22;;;;;;;6.25;2.60;;;;;;;14.61;69.13;98662.97;4944695;28;20046;-65
2023/07/22 02:33:47;;;;;;;3.08;2.42;;;;;;;14.68;68.97;98669.38;4941855;28;20054;-66
2023/07/22 02:36:13;;;;;;;4.68;2.90;;;;;;;14.70;68.57;98689.69;4942969;28;20043;-64
2023/07/22 02:38:38;;;;;;;3.38;2.53;;;;;;;14.78;67.96;98676.31;4952404;28;20045;-64
2023/07/22 02:41:07;;;;;;;2.83;2.17;;;;;;;14.82;67.76;98676.81;4950795;28;20038;-67
2023/07/22 02:43:57;;;;;;;6.25;2.75;;;;;;;14.94;67.87;98680.91;4953495;28;20054;-64
2023/07/22 02:46:22;;;;;;;3.95;2.03;;;;;;;14.90;67.53;98677.69;4958479;28;20150;-69
2023/07/22 02:49:13;;;;;;;5.15;2.75;;;;;;;15.08;68.00;98669.56;4972387;28;20053;-68
2023/07/22 02:51:38;;;;;;;2.90;2.20;;;;;;;15.08;67.80;98692.91;4958841;28;20488;-66
2023/07/22 02:54:03;;;;;;;5.28;2.13;;;;;;;15.16;67.07;98679.50;4958306;28;20053;-67
2023/07/22 02:56:29;;;;;;;5.90;2.63;;;;;;;15.26;67.30;98672.16;4956872;28;20046;-69
2023/07/22 02:58:54;;;;;;;5.35;3.15;;;;;;;15.33;67.16;98675.03;4956320;28;20497;-67
2023/07/22 03:01:19;;;;;;;5.43;2.22;;;;;;;15.43;66.65;98678.41;4953581;28;20046;-66
2023/07/22 03:03:44;;;;;;;5.18;2.22;;;;;;;15.49;65.96;98683.13;4937151;28;20414;-67
2023/07/22 03:06:10;;;;;;;5.70;2.67;;;;;;;15.50;66.23;98676.75;4936754;28;20410;-67
2023/07/22 03:08:36;;;;;;;2.65;2.00;;;;;;;15.56;65.84;98676.16;4943844;28;20050;-67
2023/07/22 03:11:01;;;;;;;3.38;2.65;;;;;;;15.63;65.70;98684.38;4972637;28;20034;-66
2023/07/22 03:13:29;;;;;;;6.18;2.78;;;;;;;15.74;65.68;98684.06;4955981;28;20050;-64
2023/07/22 03:15:55;;;;;;;5.07;2.38;;;;;;;15.89;65.32;98671.66;4940200;28;20047;-66
2023/07/22 03:18:20;;;;;;;2.40;1.90;;;;;;;16.03;65.25;98683.59;4937887;28;20057;-66
2023/07/22 03:20:46;;;;;;;4.30;2.42;;;;;;;16.13;64.79;98677.03;4937859;28;20409;-69
2023/07/22 03:23:11;;;;;;;4.47;2.80;;;;;;;16.29;64.93;98706.59;4939698;28;20054;-64
2023/07/22 03:25:36;;;;;;;2.78;2.53;;;;;;;16.51;64.32;98683.56;4944200;28;20853;-65
2023/07/22 03:28:06;;;;;;;2.15;1.98;;;;;;;16.71;63.78;98689.41;4940199;28;20038;-65
2023/07/22 03:30:33;;;;;;;7.97;2.65;;;;;;;16.85;63.11;98685.19;4939745;28;20045;-66
2023/07/22 03:32:58;;;;;;;5.97;2.65;;;;;;;17.02;62.83;98681.44;4963558;28;20046;-66
2023/07/22 03:35:24;;;;;;;4.43;2.47;;;;;;;17.15;62.08;98680.91;4956641;28;20045;-66
2023/07/22 03:37:49;;;;;;;3.28;2.63;;;;;;;17.21;61.45;98672.09;4955003;28;20046;-66
2023/07/22 03:40:19;;;;;;;3.22;2.35;;;;;;;17.28;61.38;98675.75;4971256;28;20046;-66
2023/07/22 03:42:50;;;;;;;4.03;2.35;;;;;;;17.31;61.19;98681.66;4940460;28;20046;-65
2023/07/22 03:45:16;;;;;;;3.70;2.53;;;;;;;17.35;60.99;98698.31;4939612;28;20057;-66
2023/07/22 03:47:41;;;;;;;3.97;2.70;;;;;;;17.47;61.14;98690.69;4940098;28;20042;-66
2023/07/22 03:50:07;;;;;;;3.67;2.40;;;;;;;17.52;60.58;98693.66;4953441;28;20050;-66
2023/07/22 03:52:32;;;;;;;3.33;2.15;;;;;;;17.54;60.09;98703.25;4941378;28;20058;-64
2023/07/22 03:54:58;;;;;;;2.45;2.25;;;;;;;17.63;60.08;98683.34;4937406;28;20050;-66
2023/07/22 03:57:26;;;;;;;3.78;2.85;;;;;;;17.75;59.73;98716.13;4937056;28;20050;-65
2023/07/22 03:59:55;;;;;;;6.60;2.50;;;;;;;17.92;59.63;98695.31;4951837;28;20053;-66
2023/07/22 04:02:21;;;;;;;6.10;2.88;;;;;;;17.89;58.88;98690.28;4956516;28;20042;-65
2023/07/22 04:04:46;;;;;;;3.13;2.63;;;;;;;18.01;59.07;98673.50;4955276;28;20053;-65
2023/07/22 04:07:11;;;;;;;5.05;2.65;;;;;;;18.20;58.71;98688.34;4971253;28;20052;-65
2023/07/22 04:09:37;;;;;;;6.18;2.75;;;;;;;18.36;58.11;98692.78;4954630;28;20073;-65
2023/07/22 04:12:02;;;;;;;4.63;2.58;;;;;;;18.47;57.92;98689.63;4955188;28;20054;-66
2023/07/22 04:14:27;;;;;;;3.70;2.58;;;;;;;18.42;57.48;98686.63;4956347;28;20045;-65
2023/07/22 04:16:52;;;;;;;2.42;2.20;;;;;;;18.56;57.70;98677.72;4955996;28;20053;-65
2023/07/22 04:19:18;;;;;;;2.30;2.08;;;;;;;18.69;57.28;98682.53;4955550;28;20054;-65
2023/07/22 04:21:43;;;;;;;3.17;2.13;;;;;;;18.72;56.82;98683.00;4971270;28;20493;-67
2023/07/22 04:24:10;;;;;;;5.25;2.67;;;;;;;18.85;56.85;98682.34;4971407;28;20528;-66
2023/07/22 04:26:35;;;;;;;3.08;2.35;;;;;;;18.89;55.87;98682.81;4956097;28;20042;-66
2023/07/22 04:29:00;;;;;;;4.07;2.47;;;;;;;19.06;56.14;98687.88;4953990;28;20065;-66
2023/07/22 04:31:25;;;;;;;4.00;2.85;;;;;;;19.28;55.64;98693.34;4938609;28;20054;-66
2023/07/22 04:33:51;;;;;;;7.03;2.70;;;;;;;19.51;55.34;98686.81;4954627;28;20584;-65
2023/07/22 04:36:16;;;;;;;2.78;2.08;;;;;;;19.75;54.81;98690.22;4971072;28;20054;-65
2023/07/22 04:38:41;;;;;;;3.83;2.30;;;;;;;19.98;54.42;98671.91;4954101;28;20413;-66
2023/07/22 04:41:07;;;;;;;2.65;1.98;;;;;;;20.31;54.18;98693.91;4954823;28;20046;-65
2023/07/22 04:43:32;;;;;;;2.85;2.10;;;;;;;20.60;52.63;98691.03;4955975;28;20038;-66
2023/07/22 04:45:57;;;;;;;2.70;2.45;;;;;;;20.97;51.69;98697.13;4938700;28;20050;-65
2023/07/22 04:48:23;;;;;;;3.65;2.33;;;;;;;21.38;50.88;98699.88;4954671;28;20413;-66
2023/07/22 04:50:49;;;;;;;5.38;2.50;;;;;;;21.82;50.26;98696.72;4955733;28;20046;-65
2023/07/22 04:53:16;;;;;;;5.65;2.88;;;;;;;22.25;49.02;98690.97;4955729;28;20047;-66
2023/07/22 04:55:42;;;;;;;4.30;2.63;;;;;;;22.58;47.69;98686.38;4954653;28;20058;-66
2023/07/22 04:58:08;;;;;;;2.88;2.03;;;;;;;22.81;46.82;98694.97;4955639;28;20047;-66
2023/07/22 05:00:34;;;;;;;3.30;2.22;;;;;;;23.11;46.82;98689.06;4955905;28;20050;-66
2023/07/22 05:02:59;;;;;;;14.00;2.83;;;;;;;23.42;45.85;98682.91;4954027;28;20047;-65
2023/07/22 05:05:24;;;;;;;3.90;2.20;;;;;;;23.66;44.89;98682.22;4970865;28;20065;-66
2023/07/22 05:07:50;;;;;;;2.45;2.05;;;;;;;23.83;44.26;98685.25;4955634;28;20034;-65
2023/07/22 05:10:19;;;;;;;8.40;2.63;;;;;;;23.87;43.56;98690.03;4955507;28;20053;-65
2023/07/22 05:12:45;;;;;;;3.95;1.92;;;;;;;23.82;43.62;98683.56;4955655;28;20042;-67
2023/07/22 05:15:11;;;;;;;4.90;2.17;;;;;;;23.80;43.66;98688.44;4953865;28;20058;-66
2023/07/22 05:17:37;;;;;;;2.83;2.30;;;;;;;23.99;43.93;98683.91;4955876;28;20409;-66
2023/07/22 05:20:05;;;;;;;4.25;2.58;;;;;;;24.13;43.35;98688.22;4955749;28;20884;-66
2023/07/22 05:22:31;;;;;;;3.88;2.28;;;;;;;24.07;43.06;98687.19;4955798;28;20043;-66
2023/07/22 05:24:56;;;;;;;2.55;2.35;;;;;;;24.19;43.21;98688.16;4955562;28;20069;-65
2023/07/22 05:27:21;;;;;;;3.30;2.85;;;;;;;24.18;43.01;98682.94;4955571;28;20042;-66
2023/07/22 05:29:46;;;;;;;6.45;2.55;;;;;;;24.39;42.77;98681.75;4956506;28;20053;-66
2023/07/22 05:32:11;;;;;;;4.40;2.13;;;;;;;24.56;42.30;98675.56;4959185;28;20046;-66
2023/07/22 05:34:37;;;;;;;4.00;2.90;;;;;;;24.93;41.67;98684.69;4958937;28;20816;-66
2023/07/22 05:37:02;;;;;;;4.47;2.50;;;;;;;25.38;40.78;98678.94;4973902;28;20505;-66
2023/07/22 05:39:27;;;;;;;4.03;2.08;;;;;;;25.60;40.07;98680.19;4958994;28;20046;-67
2023/07/22 05:41:53;;;;;;;2.78;2.25;;;;;;;25.88;39.92;98684.19;4973303;28;20050;-67
2023/07/22 05:44:18;;;;;;;3.58;2.13;;;;;;;26.18;39.21;98695.97;4958994;28;20046;-66
2023/07/22 05:46:43;;;;;;;3.00;2.50;;;;;;;26.60;38.26;98671.38;4958712;28;20045;-65
2023/07/22 05:49:10;;;;;;;4.43;2.17;;;;;;;27.03;37.77;98666.41;4958684;28;20444;-66
2023/07/22 05:51:35;;;;;;;5.20;3.30;;;;;;;27.34;36.96;98662.41;4958672;28;20130;-65
2023/07/22 05:54:00;;;;;;;5.05;2.40;;;;;;;27.70;36.61;98688.66;4973255;28;20504;-67
2023/07/22 05:56:26;;;;;;;4.45;2.35;;;;;;;28.00;35.44;98660.19;4958868;28;20049;-67
2023/07/22 05:58:52;;;;;;;3.42;2.80;;;;;;;28.41;35.47;98667.28;4958394;28;20054;-67
2023/07/22 06:01:17;;;;;;;5.10;2.83;;;;;;;28.93;34.50;98665.09;4958534;28;20046;-68
2023/07/22 06:03:43;;;;;;;3.08;2.33;;;;;;;29.50;33.56;98671.16;4973318;28;20041;-66
2023/07/22 06:06:10;;;;;;;4.47;2.47;;;;;;;29.95;32.82;98672.75;4941037;28;20524;-67
2023/07/22 06:08:35;;;;;;;5.00;2.42;;;;;;;30.18;31.87;98664.25;4958431;28;20034;-66
2023/07/22 06:11:00;;;;;;;3.95;2.30;;;;;;;30.31;31.39;98661.06;4958260;28;20405;-68
2023/07/22 06:13:26;;;;;;;4.18;2.47;;;;;;;30.57;31.39;98667.66;4958481;28;20042;-66
2023/07/22 06:15:51;;;;;;;2.75;2.45;;;;;;;31.27;30.85;98668.41;4958320;28;20504;-66
2023/07/22 06:18:17;;;;;;;3.22;2.58;;;;;;;32.06;29.99;98666.25;4958459;28;20046;-66
2023/07/22 06:20:42;;;;;;;5.60;2.42;;;;;;;32.94;28.77;98663.31;4958008;28;20050;-66
2023/07/22 06:23:07;;;;;;;6.75;2.80;;;;;;;33.68;27.68;98653.44;4956411;28;20053;-67
2023/07/22 06:25:32;;;;;;;2.92;2.58;;;;;;;34.17;26.97;98661.75;4957841;28;20053;-70
2023/07/22 06:27:57;;;;;;;4.65;2.75;;;;;;;34.76;26.36;98675.50;4958070;28;20042;-70
2023/07/22 06:30:23;;;;;;;5.82;3.15;;;;;;;35.37;25.93;98611.13;4958188;28;20046;-69
2023/07/22 06:32:48;;;;;;;6.45;3.42;;;;;;;35.77;25.44;98595.94;4957664;28;20045;-70
2023/07/22 06:35:13;;;;;;;5.18;2.53;;;;;;;36.33;24.60;98611.75;4958005;28;20087;-70
2023/07/22 06:37:44;;;;;;;5.82;3.17;;;;;;;36.87;23.95;98613.88;4955884;28;20134;-70
2023/07/22 06:40:11;;;;;;;5.00;2.95;;;;;;;36.94;23.71;98613.47;4973171;28;20050;-70
2023/07/22 06:42:39;;;;;;;4.22;2.78;;;;;;;36.61;23.64;98609.88;4957163;28;20039;-71
2023/07/22 06:45:05;;;;;;;3.25;2.95;;;;;;;36.30;24.21;98613.19;4956309;28;20073;-70
2023/07/22 06:47:32;;;;;;;3.00;2.80;;;;;;;35.94;24.05;98600.94;4957940;28;20043;-69
2023/07/22 06:49:57;;;;;;;3.03;2.83;;;;;;;36.19;24.12;98606.13;4957677;28;20050;-71
2023/07/22 06:52:23;;;;;;;3.28;2.92;;;;;;;36.65;23.64;98617.31;4957628;28;20034;-69
2023/07/22 06:54:48;;;;;;;4.32;3.80;;;;;;;37.39;23.03;98620.09;4957806;28;20050;-70
2023/07/22 06:57:13;;;;;;;4.18;3.17;;;;;;;37.72;22.38;98613.28;4957242;28;20039;-70
2023/07/22 06:59:39;;;;;;;3.40;3.17;;;;;;;38.17;22.20;98621.75;4957564;28;20070;-70
2023/07/22 07:02:04;;;;;;;4.47;4.07;;;;;;;38.77;21.76;98615.81;4957512;28;20042;-69
2023/07/22 07:04:30;;;;;;;4.22;3.20;;;;;;;39.32;21.19;98619.06;4955955;28;20057;-70
2023/07/22 07:06:55;;;;;;;3.85;3.53;;;;;;;39.49;20.68;98615.53;4957181;28;20041;-69
2023/07/22 07:09:20;;;;;;;4.43;3.50;;;;;;;39.33;20.35;98605.94;4955772;28;20058;-69
2023/07/22 07:11:46;;;;;;;7.47;3.95;;;;;;;39.49;20.27;98610.78;4955771;28;20054;-70
2023/07/22 07:14:11;;;;;;;3.80;3.50;;;;;;;39.14;20.84;98609.81;4957094;28;20038;-70
2023/07/22 07:16:36;;;;;;;3.55;3.33;;;;;;;39.21;20.50;98606.53;4957378;28;20046;-71
2023/07/22 07:19:02;;;;;;;3.90;3.60;;;;;;;39.84;19.92;98611.72;4957579;28;20061;-70
2023/07/22 07:21:28;;;;;;;4.22;3.83;;;;;;;40.76;19.44;98600.31;4955496;28;20058;-70
2023/07/22 07:23:54;;;;;;;4.47;4.07;;;;;;;41.56;18.74;98609.75;4957091;28;20422;-70
2023/07/22 07:26:20;;;;;;;5.88;4.60;;;;;;;42.15;18.12;98609.69;4957257;28;20042;-70
2023/07/22 07:28:46;;;;;;;4.75;4.35;;;;;;;42.73;17.92;98608.66;4956899;28;20041;-69
2023/07/22 07:31:11;;;;;;;7.95;5.05;;;;;;;42.97;17.35;98613.53;4957069;28;20042;-70
2023/07/22 07:33:37;;;;;;;5.65;5.15;;;;;;;42.85;17.46;98613.50;4957051;28;20046;-70
2023/07/22 07:36:03;;;;;;;5.30;4.80;;;;;;;42.52;17.43;98619.91;4956911;28;20410;-70
2023/07/22 07:38:28;;;;;;;5.18;4.68;;;;;;;42.59;17.55;98614.56;4956909;28;20045;-67
2023/07/22 07:41:00;;;;;;;5.15;4.72;;;;;;;42.82;17.01;98620.63;4956760;28;20054;-66
2023/07/22 07:43:26;;;;;;;5.35;4.85;;;;;;;42.60;17.63;98621.81;4971992;28;20073;-67
2023/07/22 07:46:24;;;;;;;4.85;4.45;;;;;;;42.37;17.97;98620.56;4956888;28;20054;-66
2023/07/22 07:48:55;;;;;;;4.80;4.40;;;;;;;41.98;18.01;98614.28;4962473;28;20046;-65
2023/07/22 07:51:22;;;;;;;4.82;4.43;;;;;;;42.27;17.70;98612.53;4963109;28;20050;-67
2023/07/22 07:53:48;;;;;;;5.07;4.55;;;;;;;41.18;18.27;98607.78;4959983;28;20053;-68
2023/07/22 07:56:14;;;;;;;7.85;4.60;;;;;;;40.41;18.66;98611.53;4956909;28;20049;-67
2023/07/22 07:58:40;;;;;;;5.78;3.80;;;;;;;38.49;19.86;98606.75;4954400;28;20053;-67
2023/07/22 08:01:06;;;;;;;4.10;3.80;;;;;;;36.31;21.69;98611.22;4939365;28;20061;-67
2023/07/22 08:03:33;;;;;;;3.80;3.50;;;;;;;34.89;23.26;98601.94;4955094;28;20042;-67
2023/07/22 08:05:58;;;;;;;5.05;3.35;;;;;;;35.86;22.77;98601.63;4955461;28;20049;-67
2023/07/22 08:08:24;;;;;;;3.90;3.60;;;;;;;37.70;21.11;98598.06;4956722;28;20038;-67
2023/07/22 08:11:00;;;;;;;4.10;3.70;;;;;;;39.02;20.31;98606.81;4956366;28;20416;-66
2023/07/22 08:13:25;;;;;;;4.88;4.10;;;;;;;39.88;19.31;98598.72;4956287;28;20054;-66
2023/07/22 08:15:51;;;;;;;3.80;3.60;;;;;;;40.36;18.50;98603.34;4954158;28;20050;-66
2023/07/22 08:18:17;;;;;;;4.55;4.15;;;;;;;40.55;18.74;98602.97;4956136;28;20050;-66
2023/07/22 08:20:42;;;;;;;4.60;4.30;;;;;;;40.06;19.00;98635.84;4955845;28;20065;-66
2023/07/22 08:23:07;;;;;;;7.75;4.70;;;;;;;39.91;19.15;98600.03;4971294;28;20049;-66
2023/07/22 08:25:32;;;;;;;5.60;4.32;;;;;;;40.42;18.37;98599.22;4956329;28;20050;-67
2023/07/22 08:27:57;;;;;;;4.30;4.00;;;;;;;40.22;18.21;98605.44;4955537;28;20061;-67
2023/07/22 08:30:22;;;;;;;4.55;4.10;;;;;;;39.67;19.05;98608.84;4955503;28;20050;-68
2023/07/22 08:32:47;;;;;;;4.38;4.00;;;;;;;38.54;19.88;98645.66;4954209;28;20438;-65
2023/07/22 08:35:13;;;;;;;4.38;4.07;;;;;;;38.53;20.12;98654.34;4937767;28;20062;-67
2023/07/22 08:37:38;;;;;;;5.70;4.45;;;;;;;38.55;20.16;98646.50;4955855;28;20042;-67
2023/07/22 08:40:05;;;;;;;4.68;4.20;;;;;;;39.58;19.39;98604.41;4970877;28;20050;-67
2023/07/22 08:42:33;;;;;;;7.32;4.72;;;;;;;40.69;18.45;98611.19;4955855;28;20046;-66
2023/07/22 08:45:03;;;;;;;6.97;4.95;;;;;;;40.96;17.42;98613.59;4955784;28;20053;-66
2023/07/22 08:47:30;;;;;;;4.63;4.13;;;;;;;40.11;17.97;98651.59;4954700;28;20042;-66
2023/07/22 08:50:00;;;;;;;4.20;3.90;;;;;;;40.87;17.79;98612.78;4956095;28;20444;-65
2023/07/22 08:52:25;;;;;;;5.47;5.07;;;;;;;42.21;17.12;98616.72;4955857;28;20049;-67
2023/07/22 08:54:51;;;;;;;4.85;4.47;;;;;;;43.41;16.78;98614.63;4954917;28;20046;-67
2023/07/22 08:57:18;;;;;;;5.15;4.85;;;;;;;43.27;16.95;98617.78;4955461;28;20046;-67
2023/07/22 09:00:33;;;;;;;5.05;4.53;;;;;;;42.88;17.01;98627.66;4938437;28;20537;-67
2023/07/22 09:03:00;;;;;;;4.97;4.47;;;;;;;40.60;18.51;98645.56;4955760;28;20038;-68
2023/07/22 09:08:17;;;;;;;4.82;4.53;;;;;;;42.62;17.55;98613.06;4959397;28;20046;-66
2023/07/22 09:10:43;;;;;;;7.32;5.85;;;;;;;43.75;17.14;98616.97;4959529;28;20042;-67
2023/07/22 09:13:09;;;;;;;14.40;5.75;;;;;;;45.02;16.23;98612.69;4959551;28;20118;-67
2023/07/22 09:15:36;;;;;;;6.60;6.10;;;;;;;46.14;15.17;98644.81;4959694;28;20054;-67
2023/07/22 09:18:02;;;;;;;8.05;7.45;;;;;;;45.44;14.81;98632.66;4959412;28;20046;-67
2023/07/22 09:20:29;;;;;;;7.68;6.88;;;;;;;43.83;15.74;98646.09;4959189;28;20433;-67
2023/07/22 09:22:54;;;;;;;5.97;5.43;;;;;;;41.91;17.01;98636.34;4957810;28;20046;-67
2023/07/22 09:25:19;;;;;;;5.97;5.50;;;;;;;39.87;18.06;98638.94;4954959;28;20050;-66
2023/07/22 09:27:49;;;;;;;5.10;4.57;;;;;;;37.50;19.50;98643.78;4930677;28;20057;-68
2023/07/22 09:30:25;;;;;;;5.57;4.05;;;;;;;36.58;20.99;98643.81;4959435;28;20567;-67
2023/07/22 09:32:53;;;;;;;4.07;3.70;;;;;;;37.47;20.38;98641.66;4974414;28;20065;-66
2023/07/22 09:35:19;;;;;;;4.30;3.90;;;;;;;38.76;19.42;98592.72;4959349;28;20050;-66
2023/07/22 09:37:45;;;;;;;4.15;3.85;;;;;;;38.30;19.72;98628.41;4958886;28;20493;-66
2023/07/22 09:40:22;;;;;;;4.88;3.60;;;;;;;37.32;20.69;98642.78;4958667;28;20497;-67
2023/07/22 09:42:52;;;;;;;3.80;3.50;;;;;;;37.87;20.51;98611.31;4959969;28;20510;-66
2023/07/22 09:45:23;;;;;;;5.32;4.45;;;;;;;40.20;18.71;98608.56;4942480;28;20045;-68
2023/07/22 09:47:50;;;;;;;5.47;4.97;;;;;;;42.53;17.32;98601.13;4950392;28;20034;-68
2023/07/22 09:50:25;;;;;;;6.25;5.75;;;;;;;45.07;15.56;98603.94;4955727;28;20127;-68
2023/07/22 09:52:59;;;;;;;7.10;6.60;;;;;;;46.54;14.53;98654.94;4957429;28;20123;-68
2023/07/22 09:55:28;;;;;;;8.57;7.97;;;;;;;47.02;13.82;98647.88;4942358;28;20042;-68
2023/07/22 09:58:09;;;;;;;9.10;8.25;;;;;;;46.20;13.98;98646.16;4957260;28;20057;-68
2023/07/22 10:01:01;;;;;;;8.20;7.50;;;;;;;47.01;13.37;98656.72;4942418;28;20051;-66
2023/07/22 10:03:30;;;;;;;10.48;9.77;;;;;;;46.63;14.15;98670.47;4941590;28;20039;-68
2023/07/22 10:06:03;;;;;;;10.43;9.40;;;;;;;47.26;13.39;98655.97;4956589;28;20054;-68
2023/07/22 10:08:34;;;;;;;11.50;10.77;;;;;;;46.15;13.71;98638.00;4953558;28;20043;-68
2023/07/22 10:11:00;;;;;;;9.68;9.05;;;;;;;44.92;13.96;98658.22;4940904;28;20057;-68
2023/07/22 10:13:26;;;;;;;8.55;8.02;;;;;;;44.95;14.28;98669.53;4957610;28;20047;-69
2023/07/22 10:15:52;;;;;;;8.02;7.43;;;;;;;43.16;15.22;98655.03;4942378;28;20057;-69
2023/07/22 10:18:23;;;;;;;8.43;7.63;;;;;;;42.99;16.06;98651.28;4954861;28;20143;-72
2023/07/22 10:20:49;;;;;;;7.88;7.00;;;;;;;43.97;15.32;98638.16;4941093;28;20046;-66
2023/07/22 10:23:15;;;;;;;8.27;7.75;;;;;;;45.78;14.35;98637.53;4951520;28;20065;-67
2023/07/22 10:25:42;;;;;;;10.95;10.25;;;;;;;47.56;13.69;98643.97;4951336;28;20050;-67
2023/07/22 10:28:08;;;;;;;12.07;11.27;;;;;;;47.83;13.46;98619.41;4940032;28;20174;-67
2023/07/22 10:30:34;;;;;;;11.32;10.52;;;;;;;45.97;13.75;98650.88;4942110;28;20086;-69
2023/07/22 10:32:59;;;;;;;9.13;8.38;;;;;;;44.71;14.42;98645.16;4957957;28;20567;-68
2023/07/22 10:35:31;;;;;;;6.85;6.40;;;;;;;42.98;15.12;98643.22;4956955;28;20050;-67
2023/07/22 10:38:09;;;;;;;6.18;5.57;;;;;;;40.83;16.90;98654.59;4956519;28;20047;-67
2023/07/22 10:41:16;;;;;;;5.10;4.75;;;;;;;38.67;18.20;98661.50;4939333;28;20050;-67
2023/07/22 10:43:52;;;;;;;4.40;4.03;;;;;;;35.92;20.68;98648.41;4925995;28;20051;-67
2023/07/22 10:46:34;;;;;;;4.00;3.70;;;;;;;35.03;21.93;98658.31;4909907;28;20425;-67
2023/07/22 10:49:10;;;;;;;4.47;3.80;;;;;;;33.76;22.89;98666.69;4922545;28;20502;-68
2023/07/22 10:51:37;;;;;;;3.65;3.35;;;;;;;32.43;24.25;98665.25;4924637;28;20537;-67
2023/07/22 10:54:02;;;;;;;3.92;2.50;;;;;;;31.45;24.77;98653.38;4917020;29;20055;-69
2023/07/22 10:56:28;;;;;;;5.22;3.10;;;;;;;30.69;25.27;98659.22;4926076;28;20061;-67
2023/07/22 10:58:53;;;;;;;5.97;2.92;;;;;;;30.24;25.23;98643.13;4914637;28;20046;-66
2023/07/22 11:01:28;;;;;;;3.22;2.40;;;;;;;30.03;25.53;98666.00;4926426;28;20051;-68
2023/07/22 11:04:17;;;;;;;2.70;2.40;;;;;;;29.65;26.53;98676.00;4916484;29;20554;-67
2023/07/22 11:06:48;;;;;;;4.57;2.25;;;;;;;28.72;27.75;98663.09;4922285;28;20046;-67
2023/07/22 11:09:34;;;;;;;3.17;2.35;;;;;;;28.49;28.36;98675.91;4935784;28;20047;-68
2023/07/22 11:12:07;;;;;;;2.42;2.22;;;;;;;28.00;29.68;98684.84;4935593;28;20054;-66
2023/07/22 11:14:34;;;;;;;2.80;2.60;;;;;;;27.70;29.62;98677.72;4929867;28;20047;-70
2023/07/22 11:17:05;;;;;;;3.47;2.78;;;;;;;27.49;29.94;98686.56;4922292;28;20392;-69
2023/07/22 11:19:31;;;;;;;3.13;2.17;;;;;;;27.32;30.35;98682.88;4934809;28;20051;-66
2023/07/22 11:21:56;;;;;;;2.30;2.10;;;;;;;27.13;31.14;98686.84;4954510;28;20793;-69
2023/07/22 11:24:23;;;;;;;5.85;2.50;;;;;;;26.94;31.07;98699.81;4956800;28;20042;-70
2023/07/22 11:26:49;;;;;;;2.90;2.70;;;;;;;26.79;31.33;98689.31;4954914;28;20517;-68
2023/07/22 11:29:15;;;;;;;4.22;2.13;;;;;;;26.60;31.79;98676.84;4953114;28;20501;-67
2023/07/22 11:31:45;;;;;;;3.10;2.20;;;;;;;26.41;31.58;98697.13;4956312;28;20516;-71
2023/07/22 11:34:13;;;;;;;2.17;1.92;;;;;;;26.17;32.42;98698.94;4954570;28;20089;-72
2023/07/22 11:36:38;;;;;;;2.42;2.17;;;;;;;25.91;32.67;98681.03;4952856;28;20058;-72